createdAt,value
2022-12-13T00:01:50.322Z,-8.60
2022-12-13T00:07:52.296Z,-8.60
2022-12-13T00:13:54.760Z,-8.60
2022-12-13T00:19:56.711Z,-8.60
2022-12-13T00:26:06.259Z,-8.70
2022-12-13T00:32:08.252Z,-8.70
2022-12-13T00:38:10.814Z,-8.90
2022-12-13T00:44:14.517Z,-8.90
2022-12-13T00:50:16.821Z,-8.90
2022-12-13T00:56:21.794Z,-8.90
2022-12-13T01:02:23.632Z,-8.90
2022-12-13T01:08:25.754Z,-9.00
2022-12-13T01:14:28.997Z,-9.00
2022-12-13T01:20:30.836Z,-9.20
2022-12-13T01:26:33.702Z,-9.20
2022-12-13T01:32:36.112Z,-9.10
2022-12-13T01:38:38.430Z,-9.10
2022-12-13T01:44:59.161Z,-9.10
2022-12-13T01:51:05.657Z,-9.20
2022-12-13T01:57:10.303Z,-9.20
2022-12-13T02:03:21.204Z,-9.30
2022-12-13T02:09:23.821Z,-9.30
2022-12-13T02:15:32.462Z,-9.20
2022-12-13T02:22:00.035Z,-9.30
2022-12-13T02:35:05.084Z,-9.20
2022-12-13T03:01:08.032Z,-9.40
2022-12-13T03:07:41.539Z,-9.40
2022-12-13T03:14:14.779Z,-9.50
2022-12-13T03:20:25.733Z,-9.50
2022-12-13T03:26:28.635Z,-9.50
2022-12-13T03:32:31.134Z,-9.50
2022-12-13T03:38:38.620Z,-9.50
2022-12-13T03:44:41.192Z,-9.50
2022-12-13T03:50:43.509Z,-9.50
2022-12-13T03:56:45.494Z,-9.50
2022-12-13T04:02:48.746Z,-9.50
2022-12-13T04:08:52.492Z,-9.70
2022-12-13T04:14:54.603Z,-9.70
2022-12-13T04:20:57.737Z,-9.70
2022-12-13T04:27:04.767Z,-9.60
2022-12-13T04:33:08.230Z,-9.60
2022-12-13T04:39:22.563Z,-9.60
2022-12-13T04:45:25.422Z,-9.60
2022-12-13T04:51:30.282Z,-9.70
2022-12-13T04:57:33.041Z,-9.80
2022-12-13T05:03:35.668Z,-9.90
2022-12-13T05:09:37.655Z,-9.80
2022-12-13T05:15:40.051Z,-9.80
2022-12-13T05:21:42.828Z,-9.90
2022-12-13T05:27:56.858Z,-9.90
2022-12-13T05:34:03.580Z,-9.90
2022-12-13T05:40:07.528Z,-9.90
2022-12-13T05:46:12.133Z,-10.00
2022-12-13T05:52:30.938Z,-9.90
2022-12-13T05:58:43.673Z,-10.00
2022-12-13T06:04:46.965Z,-10.00
2022-12-13T06:11:11.005Z,-10.00
2022-12-13T06:17:14.158Z,-10.00
2022-12-13T06:23:23.449Z,-10.00
2022-12-13T06:29:26.063Z,-10.10
2022-12-13T06:35:30.981Z,-10.10
2022-12-13T06:41:36.357Z,-10.20
2022-12-13T06:47:38.205Z,-10.10
2022-12-13T06:53:42.035Z,-10.10
2022-12-13T06:59:44.462Z,-10.10
2022-12-13T07:05:46.560Z,-10.10
2022-12-13T07:11:51.913Z,-10.20
2022-12-13T07:17:54.196Z,-10.10
2022-12-13T07:23:56.855Z,-10.10
2022-12-13T07:29:58.649Z,-10.10
2022-12-13T07:36:07.113Z,-10.00
2022-12-13T07:42:08.974Z,-10.00
2022-12-13T07:48:10.758Z,-9.90
2022-12-13T08:00:15.671Z,-9.80
2022-12-13T08:06:19.323Z,-9.80
2022-12-13T08:12:22.496Z,-9.60
2022-12-13T08:18:24.965Z,-9.50
2022-12-13T08:24:28.763Z,-9.50
2022-12-13T08:30:31.976Z,-9.40
2022-12-13T08:36:34.159Z,-9.30
2022-12-13T08:42:40.647Z,-9.20
2022-12-13T08:48:46.586Z,-9.10
2022-12-13T08:54:56.738Z,-9.00
2022-12-13T09:00:58.795Z,-8.90
2022-12-13T09:13:33.007Z,-8.50
2022-12-13T09:19:37.559Z,-8.20
2022-12-13T09:25:52.573Z,-7.90
2022-12-13T09:32:28.511Z,-7.50
2022-12-13T09:38:54.003Z,-7.20
2022-12-13T09:45:22.266Z,-6.90
2022-12-13T09:51:43.392Z,-6.50
2022-12-13T09:58:01.040Z,-6.20
2022-12-13T10:04:03.107Z,-6.00
2022-12-13T10:10:05.372Z,-5.80
2022-12-13T10:16:25.699Z,-5.60
2022-12-13T10:22:30.799Z,-5.40
2022-12-13T10:28:34.784Z,-5.20
2022-12-13T10:34:39.993Z,-5.10
2022-12-13T10:40:51.373Z,-4.90
2022-12-13T10:47:33.165Z,-4.70
2022-12-13T10:53:55.560Z,-4.60
2022-12-13T11:00:01.163Z,-4.60
2022-12-13T11:06:26.493Z,-4.40
2022-12-13T11:12:28.681Z,-4.10
2022-12-13T11:18:38.749Z,-3.90
2022-12-13T11:24:44.369Z,-3.70
2022-12-13T11:30:55.694Z,-3.70
2022-12-13T11:37:16.302Z,-3.60
2022-12-13T11:43:33.884Z,-3.50
2022-12-13T11:49:43.500Z,-3.20
2022-12-13T11:55:53.512Z,-3.10
2022-12-13T12:02:28.070Z,-3.00
2022-12-13T12:08:47.410Z,-2.90
2022-12-13T12:15:16.803Z,-2.80
2022-12-13T12:22:12.898Z,-2.70
2022-12-13T12:28:34.547Z,-2.50
2022-12-13T12:34:48.474Z,-2.50
2022-12-13T12:41:21.184Z,-2.40
2022-12-13T12:48:47.879Z,-2.20
2022-12-13T12:55:04.038Z,-2.10
2022-12-13T13:01:13.159Z,-2.10
2022-12-13T13:07:39.747Z,-2.00
2022-12-13T13:13:46.996Z,-2.00
2022-12-13T13:20:12.905Z,-2.00
2022-12-13T13:26:36.193Z,-2.00
2022-12-13T13:32:40.790Z,-2.10
2022-12-13T13:38:53.452Z,-2.20
2022-12-13T13:45:23.153Z,-2.20
2022-12-13T13:52:08.549Z,-2.30
2022-12-13T13:58:43.612Z,-2.40
2022-12-13T14:05:08.164Z,-2.60
2022-12-13T14:11:43.624Z,-2.80
2022-12-13T14:18:12.754Z,-3.00
2022-12-13T14:24:31.125Z,-3.10
2022-12-13T14:30:35.611Z,-3.30
2022-12-13T14:36:39.610Z,-3.60
2022-12-13T14:42:42.517Z,-3.90
2022-12-13T14:48:57.212Z,-4.10
2022-12-13T14:55:06.700Z,-4.50
2022-12-13T15:01:35.170Z,-4.70
2022-12-13T15:07:40.356Z,-5.10
2022-12-13T15:13:47.346Z,-5.40
2022-12-13T15:19:50.724Z,-5.60
2022-12-13T15:26:08.466Z,-5.80
2022-12-13T15:32:17.867Z,-5.90
2022-12-13T15:38:28.786Z,-6.10
2022-12-13T15:44:48.093Z,-6.30
2022-12-13T15:51:28.945Z,-6.50
2022-12-13T15:57:34.246Z,-6.70
2022-12-13T16:03:46.161Z,-6.80
2022-12-13T16:09:50.284Z,-6.90
2022-12-13T16:16:09.565Z,-7.00
2022-12-13T16:22:14.932Z,-7.20
2022-12-13T16:28:18.120Z,-7.20
2022-12-13T16:34:20.024Z,-7.30
2022-12-13T16:40:32.471Z,-7.30
2022-12-13T16:47:14.552Z,-7.30
2022-12-13T16:52:56.801Z,-7.40
2022-12-13T16:58:59.127Z,-7.50
2022-12-13T17:05:01.030Z,-7.50
2022-12-13T17:11:03.769Z,-7.50
2022-12-13T17:17:07.107Z,-7.60
2022-12-13T17:23:14.704Z,-7.60
2022-12-13T17:29:19.638Z,-7.60
2022-12-13T17:35:21.602Z,-7.60
2022-12-13T17:41:24.388Z,-7.70
2022-12-13T17:47:28.271Z,-7.70
2022-12-13T17:53:30.403Z,-7.80
2022-12-13T17:59:34.269Z,-7.70
2022-12-13T18:05:38.873Z,-7.70
2022-12-13T18:11:42.554Z,-7.70
2022-12-13T18:18:10.568Z,-7.40
2022-12-13T18:24:08.140Z,-7.10
2022-12-13T18:30:11.812Z,-6.70
2022-12-13T18:36:13.949Z,-6.40
2022-12-13T18:42:17.161Z,-6.30
2022-12-13T18:48:20.104Z,-6.30
2022-12-13T18:54:23.493Z,-6.50
2022-12-13T19:00:26.863Z,-6.60
2022-12-13T19:06:32.628Z,-6.60
2022-12-13T19:12:35.135Z,-6.60
2022-12-13T19:18:38.255Z,-6.40
2022-12-13T19:24:40.227Z,-6.20
2022-12-13T19:30:44.838Z,-6.10
2022-12-13T19:36:46.961Z,-6.00
2022-12-13T19:42:49.142Z,-5.90
2022-12-13T19:48:55.187Z,-5.80
2022-12-13T19:55:00.921Z,-5.80
2022-12-13T20:01:04.648Z,-5.70
2022-12-13T20:07:07.381Z,-5.80
2022-12-13T20:13:12.288Z,-5.80
2022-12-13T20:19:17.544Z,-5.80
2022-12-13T20:25:21.722Z,-5.90
2022-12-13T20:31:29.331Z,-6.00
2022-12-13T20:37:36.495Z,-6.10
2022-12-13T20:43:43.896Z,-6.00
2022-12-13T20:50:02.211Z,-5.90
2022-12-13T20:56:13.209Z,-5.80
2022-12-13T21:02:16.762Z,-5.80
2022-12-13T21:08:37.781Z,-5.70
2022-12-13T21:14:39.826Z,-5.60
2022-12-13T21:20:44.763Z,-5.50
2022-12-13T21:26:50.324Z,-5.50
2022-12-13T21:32:53.172Z,-5.50
2022-12-13T21:38:57.354Z,-5.50
2022-12-13T21:45:02.360Z,-5.60
2022-12-13T21:51:06.484Z,-5.60
2022-12-13T21:57:27.433Z,-5.60
2022-12-13T22:03:29.549Z,-5.60
2022-12-13T22:09:31.736Z,-5.50
2022-12-13T22:15:33.672Z,-5.50
2022-12-13T22:21:36.130Z,-5.50
2022-12-13T22:27:38.305Z,-5.50
2022-12-13T22:33:40.438Z,-5.50
2022-12-13T22:39:43.051Z,-5.40
2022-12-13T22:45:45.652Z,-5.30
2022-12-13T22:51:47.721Z,-5.30
2022-12-13T22:57:50.113Z,-5.30
2022-12-13T23:03:53.577Z,-5.30
2022-12-13T23:09:55.577Z,-5.20
2022-12-13T23:15:57.462Z,-5.10
2022-12-13T23:21:59.308Z,-5.00
2022-12-13T23:28:01.377Z,-5.00
2022-12-13T23:34:04.113Z,-4.90
2022-12-13T23:40:08.531Z,-4.90
2022-12-13T23:46:14.630Z,-4.90
2022-12-13T23:52:16.623Z,-4.90
2022-12-13T23:58:22.793Z,-4.90
